sensor_id;sensor_type;location;lat;lon;timestamp;P1;durP1;ratioP1;P2;durP2;ratioP2
49514;SDS011;35415;47.870;16.058;2022-11-15T00:00:02;28.65;;;16.35;;
49514;SDS011;35415;47.870;16.058;2022-11-15T00:02:32;24.65;;;14.30;;
49514;SDS011;35415;47.870;16.058;2022-11-15T00:04:59;27.83;;;15.45;;
49514;SDS011;35415;47.870;16.058;2022-11-15T00:07:26;30.75;;;15.63;;
49514;SDS011;35415;47.870;16.058;2022-11-15T00:09:53;27.20;;;15.77;;
49514;SDS011;35415;47.870;16.058;2022-11-15T00:12:20;26.10;;;15.68;;
49514;SDS011;35415;47.870;16.058;2022-11-15T00:14:47;29.98;;;17.63;;
49514;SDS011;35415;47.870;16.058;2022-11-15T00:17:14;30.15;;;17.13;;
49514;SDS011;35415;47.870;16.058;2022-11-15T00:19:43;28.35;;;17.73;;
49514;SDS011;35415;47.870;16.058;2022-11-15T00:22:10;31.30;;;17.95;;
49514;SDS011;35415;47.870;16.058;2022-11-15T00:24:37;33.60;;;17.95;;
49514;SDS011;35415;47.870;16.058;2022-11-15T00:27:04;30.90;;;17.80;;
49514;SDS011;35415;47.870;16.058;2022-11-15T00:29:31;32.58;;;17.90;;
49514;SDS011;35415;47.870;16.058;2022-11-15T00:31:58;30.98;;;16.95;;
49514;SDS011;35415;47.870;16.058;2022-11-15T00:34:25;34.55;;;17.73;;
49514;SDS011;35415;47.870;16.058;2022-11-15T00:36:54;31.50;;;18.70;;
49514;SDS011;35415;47.870;16.058;2022-11-15T00:39:21;30.88;;;17.00;;
49514;SDS011;35415;47.870;16.058;2022-11-15T00:41:48;30.65;;;16.33;;
49514;SDS011;35415;47.870;16.058;2022-11-15T00:44:15;30.15;;;16.70;;
49514;SDS011;35415;47.870;16.058;2022-11-15T00:46:42;24.92;;;15.35;;
49514;SDS011;35415;47.870;16.058;2022-11-15T00:49:09;27.48;;;16.85;;
49514;SDS011;35415;47.870;16.058;2022-11-15T00:51:36;28.50;;;16.80;;
49514;SDS011;35415;47.870;16.058;2022-11-15T00:54:04;24.88;;;16.33;;
49514;SDS011;35415;47.870;16.058;2022-11-15T00:56:31;26.55;;;16.27;;
49514;SDS011;35415;47.870;16.058;2022-11-15T00:58:58;26.50;;;15.52;;
49514;SDS011;35415;47.870;16.058;2022-11-15T01:01:25;25.80;;;16.27;;
49514;SDS011;35415;47.870;16.058;2022-11-15T01:03:53;26.88;;;16.25;;
49514;SDS011;35415;47.870;16.058;2022-11-15T01:06:20;29.75;;;15.68;;
49514;SDS011;35415;47.870;16.058;2022-11-15T01:08:47;24.10;;;15.05;;
49514;SDS011;35415;47.870;16.058;2022-11-15T01:11:15;27.67;;;16.33;;
49514;SDS011;35415;47.870;16.058;2022-11-15T01:13:42;26.23;;;15.60;;
49514;SDS011;35415;47.870;16.058;2022-11-15T01:16:10;27.08;;;15.70;;
49514;SDS011;35415;47.870;16.058;2022-11-15T01:18:39;26.38;;;15.40;;
49514;SDS011;35415;47.870;16.058;2022-11-15T01:21:07;24.42;;;14.48;;
49514;SDS011;35415;47.870;16.058;2022-11-15T01:23:35;23.08;;;14.43;;
49514;SDS011;35415;47.870;16.058;2022-11-15T01:26:03;23.50;;;14.98;;
49514;SDS011;35415;47.870;16.058;2022-11-15T01:28:35;22.52;;;14.27;;
49514;SDS011;35415;47.870;16.058;2022-11-15T01:31:05;27.83;;;16.43;;
49514;SDS011;35415;47.870;16.058;2022-11-15T01:33:35;26.80;;;15.93;;
49514;SDS011;35415;47.870;16.058;2022-11-15T01:36:03;25.90;;;16.17;;
49514;SDS011;35415;47.870;16.058;2022-11-15T01:38:31;27.92;;;16.77;;
49514;SDS011;35415;47.870;16.058;2022-11-15T01:40:58;28.90;;;15.77;;
49514;SDS011;35415;47.870;16.058;2022-11-15T01:43:26;27.88;;;15.10;;
49514;SDS011;35415;47.870;16.058;2022-11-15T01:45:58;28.15;;;15.52;;
49514;SDS011;35415;47.870;16.058;2022-11-15T01:48:30;28.45;;;15.43;;
49514;SDS011;35415;47.870;16.058;2022-11-15T01:50:59;26.08;;;15.00;;
49514;SDS011;35415;47.870;16.058;2022-11-15T01:53:30;24.85;;;15.45;;
49514;SDS011;35415;47.870;16.058;2022-11-15T01:55:59;23.45;;;14.48;;
49514;SDS011;35415;47.870;16.058;2022-11-15T01:58:29;24.63;;;14.95;;
49514;SDS011;35415;47.870;16.058;2022-11-15T02:00:58;27.35;;;15.25;;
49514;SDS011;35415;47.870;16.058;2022-11-15T02:03:26;24.95;;;14.63;;
49514;SDS011;35415;47.870;16.058;2022-11-15T02:06:01;26.90;;;14.43;;
49514;SDS011;35415;47.870;16.058;2022-11-15T02:08:31;22.75;;;13.10;;
49514;SDS011;35415;47.870;16.058;2022-11-15T02:10:58;22.05;;;14.18;;
49514;SDS011;35415;47.870;16.058;2022-11-15T02:13:25;20.75;;;14.23;;
49514;SDS011;35415;47.870;16.058;2022-11-15T02:15:56;22.85;;;14.13;;
49514;SDS011;35415;47.870;16.058;2022-11-15T02:18:32;21.40;;;13.20;;
49514;SDS011;35415;47.870;16.058;2022-11-15T02:21:05;23.27;;;12.90;;
49514;SDS011;35415;47.870;16.058;2022-11-15T02:23:52;23.55;;;13.43;;
49514;SDS011;35415;47.870;16.058;2022-11-15T02:26:50;24.10;;;14.27;;
49514;SDS011;35415;47.870;16.058;2022-11-15T02:29:39;23.30;;;14.50;;
49514;SDS011;35415;47.870;16.058;2022-11-15T02:32:25;25.98;;;14.10;;
49514;SDS011;35415;47.870;16.058;2022-11-15T02:35:02;30.15;;;15.27;;
49514;SDS011;35415;47.870;16.058;2022-11-15T02:37:42;22.10;;;13.40;;
49514;SDS011;35415;47.870;16.058;2022-11-15T02:40:16;25.73;;;15.23;;
49514;SDS011;35415;47.870;16.058;2022-11-15T02:42:50;24.35;;;13.65;;
49514;SDS011;35415;47.870;16.058;2022-11-15T02:45:39;23.52;;;14.45;;
49514;SDS011;35415;47.870;16.058;2022-11-15T02:48:13;23.63;;;14.07;;
49514;SDS011;35415;47.870;16.058;2022-11-15T02:50:42;23.48;;;13.27;;
49514;SDS011;35415;47.870;16.058;2022-11-15T02:53:10;25.73;;;13.50;;
49514;SDS011;35415;47.870;16.058;2022-11-15T02:55:37;25.10;;;14.40;;
49514;SDS011;35415;47.870;16.058;2022-11-15T02:58:18;23.70;;;13.68;;
49514;SDS011;35415;47.870;16.058;2022-11-15T03:00:57;24.48;;;13.95;;
49514;SDS011;35415;47.870;16.058;2022-11-15T03:03:38;28.08;;;13.52;;
49514;SDS011;35415;47.870;16.058;2022-11-15T03:06:19;27.17;;;14.38;;
49514;SDS011;35415;47.870;16.058;2022-11-15T03:08:54;25.10;;;14.50;;
49514;SDS011;35415;47.870;16.058;2022-11-15T03:11:29;26.98;;;14.32;;
49514;SDS011;35415;47.870;16.058;2022-11-15T03:14:00;23.95;;;14.10;;
49514;SDS011;35415;47.870;16.058;2022-11-15T03:16:33;26.33;;;14.30;;
49514;SDS011;35415;47.870;16.058;2022-11-15T03:19:06;24.60;;;14.13;;
49514;SDS011;35415;47.870;16.058;2022-11-15T03:21:40;24.77;;;14.45;;
49514;SDS011;35415;47.870;16.058;2022-11-15T03:24:08;22.80;;;13.85;;
49514;SDS011;35415;47.870;16.058;2022-11-15T03:26:38;25.98;;;14.15;;
49514;SDS011;35415;47.870;16.058;2022-11-15T03:29:08;25.95;;;14.15;;
49514;SDS011;35415;47.870;16.058;2022-11-15T03:31:41;23.27;;;13.80;;
49514;SDS011;35415;47.870;16.058;2022-11-15T03:34:17;23.33;;;14.85;;
49514;SDS011;35415;47.870;16.058;2022-11-15T03:36:49;25.02;;;14.13;;
49514;SDS011;35415;47.870;16.058;2022-11-15T03:39:18;23.63;;;13.95;;
49514;SDS011;35415;47.870;16.058;2022-11-15T03:41:48;25.00;;;14.95;;
49514;SDS011;35415;47.870;16.058;2022-11-15T03:44:26;24.40;;;13.85;;
49514;SDS011;35415;47.870;16.058;2022-11-15T03:47:03;24.98;;;14.23;;
49514;SDS011;35415;47.870;16.058;2022-11-15T03:49:38;22.58;;;13.23;;
49514;SDS011;35415;47.870;16.058;2022-11-15T03:52:11;25.27;;;15.10;;
49514;SDS011;35415;47.870;16.058;2022-11-15T03:54:47;28.70;;;16.10;;
49514;SDS011;35415;47.870;16.058;2022-11-15T03:57:14;28.90;;;14.60;;
49514;SDS011;35415;47.870;16.058;2022-11-15T03:59:41;28.02;;;14.52;;
49514;SDS011;35415;47.870;16.058;2022-11-15T04:02:09;24.27;;;13.77;;
49514;SDS011;35415;47.870;16.058;2022-11-15T04:04:35;26.42;;;14.20;;
49514;SDS011;35415;47.870;16.058;2022-11-15T04:07:04;25.38;;;13.30;;
49514;SDS011;35415;47.870;16.058;2022-11-15T04:09:31;22.73;;;13.43;;
49514;SDS011;35415;47.870;16.058;2022-11-15T04:11:58;23.52;;;13.43;;
49514;SDS011;35415;47.870;16.058;2022-11-15T04:14:25;27.90;;;14.30;;
49514;SDS011;35415;47.870;16.058;2022-11-15T04:16:52;24.60;;;14.68;;
49514;SDS011;35415;47.870;16.058;2022-11-15T04:19:19;24.20;;;13.68;;
49514;SDS011;35415;47.870;16.058;2022-11-15T04:22:07;24.38;;;13.80;;
49514;SDS011;35415;47.870;16.058;2022-11-15T04:24:51;24.02;;;13.05;;
49514;SDS011;35415;47.870;16.058;2022-11-15T04:27:18;28.83;;;15.43;;
49514;SDS011;35415;47.870;16.058;2022-11-15T04:29:45;26.50;;;14.38;;
49514;SDS011;35415;47.870;16.058;2022-11-15T04:32:13;29.10;;;14.73;;
49514;SDS011;35415;47.870;16.058;2022-11-15T04:34:40;27.55;;;15.00;;
49514;SDS011;35415;47.870;16.058;2022-11-15T04:37:08;26.90;;;14.80;;
49514;SDS011;35415;47.870;16.058;2022-11-15T04:39:38;28.02;;;15.07;;
49514;SDS011;35415;47.870;16.058;2022-11-15T04:42:05;31.33;;;16.10;;
49514;SDS011;35415;47.870;16.058;2022-11-15T04:44:33;31.40;;;15.75;;
49514;SDS011;35415;47.870;16.058;2022-11-15T04:47:00;32.72;;;17.30;;
49514;SDS011;35415;47.870;16.058;2022-11-15T04:49:27;32.40;;;17.42;;
49514;SDS011;35415;47.870;16.058;2022-11-15T04:51:54;41.10;;;21.52;;
49514;SDS011;35415;47.870;16.058;2022-11-15T04:54:22;35.63;;;18.90;;
49514;SDS011;35415;47.870;16.058;2022-11-15T04:56:49;38.78;;;21.02;;
49514;SDS011;35415;47.870;16.058;2022-11-15T04:59:16;34.63;;;17.50;;
49514;SDS011;35415;47.870;16.058;2022-11-15T05:01:43;33.40;;;18.67;;
49514;SDS011;35415;47.870;16.058;2022-11-15T05:04:10;31.05;;;16.58;;
49514;SDS011;35415;47.870;16.058;2022-11-15T05:06:46;28.15;;;15.00;;
49514;SDS011;35415;47.870;16.058;2022-11-15T05:09:14;32.05;;;15.98;;
49514;SDS011;35415;47.870;16.058;2022-11-15T05:11:42;33.10;;;15.38;;
49514;SDS011;35415;47.870;16.058;2022-11-15T05:14:10;29.45;;;15.52;;
49514;SDS011;35415;47.870;16.058;2022-11-15T05:16:37;31.40;;;16.52;;
49514;SDS011;35415;47.870;16.058;2022-11-15T05:19:04;30.48;;;15.48;;
49514;SDS011;35415;47.870;16.058;2022-11-15T05:21:32;28.90;;;15.15;;
49514;SDS011;35415;47.870;16.058;2022-11-15T05:24:00;28.30;;;14.90;;
49514;SDS011;35415;47.870;16.058;2022-11-15T05:26:27;32.25;;;15.38;;
49514;SDS011;35415;47.870;16.058;2022-11-15T05:28:56;32.92;;;15.52;;
49514;SDS011;35415;47.870;16.058;2022-11-15T05:31:25;29.75;;;15.98;;
49514;SDS011;35415;47.870;16.058;2022-11-15T05:33:53;30.52;;;15.80;;
49514;SDS011;35415;47.870;16.058;2022-11-15T05:36:24;27.25;;;15.35;;
49514;SDS011;35415;47.870;16.058;2022-11-15T05:38:56;27.08;;;14.98;;
49514;SDS011;35415;47.870;16.058;2022-11-15T05:41:24;26.50;;;14.43;;
49514;SDS011;35415;47.870;16.058;2022-11-15T05:43:58;27.88;;;14.82;;
49514;SDS011;35415;47.870;16.058;2022-11-15T05:46:28;29.27;;;15.18;;
49514;SDS011;35415;47.870;16.058;2022-11-15T05:48:55;25.08;;;13.73;;
49514;SDS011;35415;47.870;16.058;2022-11-15T05:51:24;27.08;;;14.05;;
49514;SDS011;35415;47.870;16.058;2022-11-15T05:53:51;27.50;;;14.93;;
49514;SDS011;35415;47.870;16.058;2022-11-15T05:56:21;25.48;;;13.45;;
49514;SDS011;35415;47.870;16.058;2022-11-15T05:58:48;28.35;;;15.25;;
49514;SDS011;35415;47.870;16.058;2022-11-15T06:01:16;28.17;;;14.38;;
49514;SDS011;35415;47.870;16.058;2022-11-15T06:03:43;29.88;;;14.57;;
49514;SDS011;35415;47.870;16.058;2022-11-15T06:06:10;28.42;;;14.80;;
49514;SDS011;35415;47.870;16.058;2022-11-15T06:08:37;33.25;;;16.55;;
49514;SDS011;35415;47.870;16.058;2022-11-15T06:11:05;29.58;;;15.98;;
49514;SDS011;35415;47.870;16.058;2022-11-15T06:13:33;31.75;;;16.30;;
49514;SDS011;35415;47.870;16.058;2022-11-15T06:16:00;30.52;;;14.85;;
49514;SDS011;35415;47.870;16.058;2022-11-15T06:18:31;29.52;;;15.07;;
49514;SDS011;35415;47.870;16.058;2022-11-15T06:20:59;39.85;;;20.70;;
49514;SDS011;35415;47.870;16.058;2022-11-15T06:23:26;32.92;;;15.57;;
49514;SDS011;35415;47.870;16.058;2022-11-15T06:25:57;32.72;;;15.20;;
49514;SDS011;35415;47.870;16.058;2022-11-15T06:28:24;31.85;;;14.85;;
49514;SDS011;35415;47.870;16.058;2022-11-15T06:30:51;24.88;;;14.07;;
49514;SDS011;35415;47.870;16.058;2022-11-15T06:33:18;25.42;;;13.77;;
49514;SDS011;35415;47.870;16.058;2022-11-15T06:35:46;25.08;;;13.85;;
49514;SDS011;35415;47.870;16.058;2022-11-15T06:38:13;26.45;;;14.23;;
49514;SDS011;35415;47.870;16.058;2022-11-15T06:40:40;26.98;;;13.25;;
49514;SDS011;35415;47.870;16.058;2022-11-15T06:43:07;26.27;;;14.43;;
49514;SDS011;35415;47.870;16.058;2022-11-15T06:45:34;28.02;;;15.18;;
49514;SDS011;35415;47.870;16.058;2022-11-15T06:48:01;25.00;;;13.93;;
49514;SDS011;35415;47.870;16.058;2022-11-15T06:50:28;23.58;;;13.50;;
49514;SDS011;35415;47.870;16.058;2022-11-15T06:52:58;25.13;;;13.43;;
49514;SDS011;35415;47.870;16.058;2022-11-15T06:55:27;19.95;;;9.55;;
49514;SDS011;35415;47.870;16.058;2022-11-15T06:57:54;22.65;;;12.63;;
49514;SDS011;35415;47.870;16.058;2022-11-15T07:00:21;20.80;;;11.48;;
49514;SDS011;35415;47.870;16.058;2022-11-15T07:02:49;19.88;;;12.25;;
49514;SDS011;35415;47.870;16.058;2022-11-15T07:05:16;23.23;;;12.93;;
49514;SDS011;35415;47.870;16.058;2022-11-15T07:07:43;24.33;;;13.23;;
49514;SDS011;35415;47.870;16.058;2022-11-15T07:10:18;22.27;;;12.52;;
49514;SDS011;35415;47.870;16.058;2022-11-15T07:12:46;23.67;;;12.45;;
49514;SDS011;35415;47.870;16.058;2022-11-15T07:15:14;19.23;;;11.30;;
49514;SDS011;35415;47.870;16.058;2022-11-15T07:17:42;20.58;;;11.63;;
49514;SDS011;35415;47.870;16.058;2022-11-15T07:20:09;19.25;;;10.65;;
49514;SDS011;35415;47.870;16.058;2022-11-15T07:22:38;23.58;;;12.00;;
49514;SDS011;35415;47.870;16.058;2022-11-15T07:25:06;22.75;;;11.45;;
49514;SDS011;35415;47.870;16.058;2022-11-15T07:27:35;24.33;;;12.25;;
49514;SDS011;35415;47.870;16.058;2022-11-15T07:30:03;25.17;;;12.90;;
49514;SDS011;35415;47.870;16.058;2022-11-15T07:32:32;22.42;;;12.43;;
49514;SDS011;35415;47.870;16.058;2022-11-15T07:35:01;22.58;;;11.52;;
49514;SDS011;35415;47.870;16.058;2022-11-15T07:37:28;22.45;;;11.73;;
49514;SDS011;35415;47.870;16.058;2022-11-15T07:39:55;19.35;;;11.80;;
49514;SDS011;35415;47.870;16.058;2022-11-15T07:42:24;20.58;;;10.70;;
49514;SDS011;35415;47.870;16.058;2022-11-15T07:45:10;21.65;;;10.85;;
49514;SDS011;35415;47.870;16.058;2022-11-15T07:47:40;22.88;;;10.45;;
49514;SDS011;35415;47.870;16.058;2022-11-15T07:50:07;18.10;;;11.10;;
49514;SDS011;35415;47.870;16.058;2022-11-15T07:52:36;22.05;;;11.90;;
49514;SDS011;35415;47.870;16.058;2022-11-15T07:55:03;21.98;;;11.35;;
49514;SDS011;35415;47.870;16.058;2022-11-15T07:57:32;20.15;;;11.98;;
49514;SDS011;35415;47.870;16.058;2022-11-15T08:00:00;19.52;;;10.82;;
49514;SDS011;35415;47.870;16.058;2022-11-15T08:02:29;19.17;;;10.80;;
49514;SDS011;35415;47.870;16.058;2022-11-15T08:04:56;18.98;;;10.43;;
49514;SDS011;35415;47.870;16.058;2022-11-15T08:07:24;19.02;;;10.55;;
49514;SDS011;35415;47.870;16.058;2022-11-15T08:09:51;22.02;;;11.35;;
49514;SDS011;35415;47.870;16.058;2022-11-15T08:12:18;21.52;;;11.68;;
49514;SDS011;35415;47.870;16.058;2022-11-15T08:14:45;23.00;;;11.90;;
49514;SDS011;35415;47.870;16.058;2022-11-15T08:17:12;23.63;;;11.75;;
49514;SDS011;35415;47.870;16.058;2022-11-15T08:19:40;21.25;;;11.45;;
49514;SDS011;35415;47.870;16.058;2022-11-15T08:22:07;25.45;;;12.80;;
49514;SDS011;35415;47.870;16.058;2022-11-15T08:24:34;25.88;;;12.20;;
49514;SDS011;35415;47.870;16.058;2022-11-15T08:27:01;20.98;;;11.68;;
49514;SDS011;35415;47.870;16.058;2022-11-15T08:29:28;28.35;;;13.00;;
49514;SDS011;35415;47.870;16.058;2022-11-15T08:31:55;25.83;;;13.88;;
49514;SDS011;35415;47.870;16.058;2022-11-15T08:34:22;24.05;;;12.75;;
49514;SDS011;35415;47.870;16.058;2022-11-15T08:36:51;25.83;;;13.23;;
49514;SDS011;35415;47.870;16.058;2022-11-15T08:39:18;24.75;;;12.75;;
49514;SDS011;35415;47.870;16.058;2022-11-15T08:41:45;24.50;;;12.98;;
49514;SDS011;35415;47.870;16.058;2022-11-15T08:44:13;23.63;;;12.02;;
49514;SDS011;35415;47.870;16.058;2022-11-15T08:46:40;21.98;;;11.30;;
49514;SDS011;35415;47.870;16.058;2022-11-15T08:49:07;21.02;;;10.30;;
49514;SDS011;35415;47.870;16.058;2022-11-15T08:51:34;18.70;;;10.48;;
49514;SDS011;35415;47.870;16.058;2022-11-15T08:54:03;20.52;;;11.27;;
49514;SDS011;35415;47.870;16.058;2022-11-15T08:56:30;22.77;;;11.07;;
49514;SDS011;35415;47.870;16.058;2022-11-15T08:58:57;19.15;;;10.15;;
49514;SDS011;35415;47.870;16.058;2022-11-15T09:01:24;21.00;;;11.00;;
49514;SDS011;35415;47.870;16.058;2022-11-15T09:03:51;21.77;;;10.65;;
49514;SDS011;35415;47.870;16.058;2022-11-15T09:06:19;20.35;;;11.55;;
49514;SDS011;35415;47.870;16.058;2022-11-15T09:08:46;18.20;;;10.20;;
49514;SDS011;35415;47.870;16.058;2022-11-15T09:11:15;17.23;;;9.85;;
49514;SDS011;35415;47.870;16.058;2022-11-15T09:13:45;19.60;;;11.52;;
49514;SDS011;35415;47.870;16.058;2022-11-15T09:16:12;18.38;;;10.70;;
49514;SDS011;35415;47.870;16.058;2022-11-15T09:18:40;18.98;;;10.48;;
49514;SDS011;35415;47.870;16.058;2022-11-15T09:21:08;18.48;;;10.20;;
49514;SDS011;35415;47.870;16.058;2022-11-15T09:23:36;21.83;;;11.38;;
49514;SDS011;35415;47.870;16.058;2022-11-15T09:26:04;18.38;;;10.30;;
49514;SDS011;35415;47.870;16.058;2022-11-15T09:28:33;19.48;;;10.50;;
49514;SDS011;35415;47.870;16.058;2022-11-15T09:31:02;20.90;;;11.18;;
49514;SDS011;35415;47.870;16.058;2022-11-15T09:33:30;19.25;;;11.18;;
49514;SDS011;35415;47.870;16.058;2022-11-15T09:36:00;20.13;;;11.30;;
49514;SDS011;35415;47.870;16.058;2022-11-15T09:38:28;18.27;;;11.48;;
49514;SDS011;35415;47.870;16.058;2022-11-15T09:40:58;20.13;;;10.73;;
49514;SDS011;35415;47.870;16.058;2022-11-15T09:43:47;21.48;;;11.90;;
49514;SDS011;35415;47.870;16.058;2022-11-15T09:46:27;20.98;;;11.60;;
49514;SDS011;35415;47.870;16.058;2022-11-15T09:49:03;20.55;;;11.13;;
49514;SDS011;35415;47.870;16.058;2022-11-15T09:51:32;19.15;;;11.00;;
49514;SDS011;35415;47.870;16.058;2022-11-15T09:54:13;21.33;;;11.27;;
49514;SDS011;35415;47.870;16.058;2022-11-15T09:56:50;19.95;;;10.20;;
49514;SDS011;35415;47.870;16.058;2022-11-15T09:59:30;21.65;;;11.57;;
49514;SDS011;35415;47.870;16.058;2022-11-15T10:02:12;18.45;;;10.75;;
49514;SDS011;35415;47.870;16.058;2022-11-15T10:04:54;19.38;;;11.02;;
49514;SDS011;35415;47.870;16.058;2022-11-15T10:07:23;19.80;;;11.63;;
49514;SDS011;35415;47.870;16.058;2022-11-15T10:09:55;22.75;;;11.63;;
49514;SDS011;35415;47.870;16.058;2022-11-15T10:12:28;22.70;;;11.70;;
49514;SDS011;35415;47.870;16.058;2022-11-15T10:15:01;24.27;;;12.32;;
49514;SDS011;35415;47.870;16.058;2022-11-15T10:17:35;21.85;;;11.35;;
49514;SDS011;35415;47.870;16.058;2022-11-15T10:20:20;22.48;;;11.85;;
49514;SDS011;35415;47.870;16.058;2022-11-15T10:22:49;19.30;;;10.63;;
49514;SDS011;35415;47.870;16.058;2022-11-15T10:25:19;21.98;;;11.38;;
49514;SDS011;35415;47.870;16.058;2022-11-15T10:27:52;20.17;;;11.45;;
49514;SDS011;35415;47.870;16.058;2022-11-15T10:30:22;19.58;;;10.60;;
49514;SDS011;35415;47.870;16.058;2022-11-15T10:32:56;19.52;;;10.35;;
49514;SDS011;35415;47.870;16.058;2022-11-15T10:35:24;21.33;;;11.18;;
49514;SDS011;35415;47.870;16.058;2022-11-15T10:37:52;18.08;;;10.48;;
49514;SDS011;35415;47.870;16.058;2022-11-15T10:40:32;20.95;;;11.63;;
49514;SDS011;35415;47.870;16.058;2022-11-15T10:43:05;24.95;;;12.38;;
49514;SDS011;35415;47.870;16.058;2022-11-15T10:45:40;23.80;;;11.90;;
49514;SDS011;35415;47.870;16.058;2022-11-15T10:48:23;28.40;;;13.32;;
49514;SDS011;35415;47.870;16.058;2022-11-15T10:50:51;28.58;;;12.35;;
49514;SDS011;35415;47.870;16.058;2022-11-15T10:53:26;27.90;;;12.20;;
49514;SDS011;35415;47.870;16.058;2022-11-15T10:55:57;26.02;;;12.20;;
49514;SDS011;35415;47.870;16.058;2022-11-15T10:58:35;24.30;;;12.50;;
49514;SDS011;35415;47.870;16.058;2022-11-15T11:01:13;22.98;;;12.02;;
49514;SDS011;35415;47.870;16.058;2022-11-15T11:03:42;22.52;;;12.35;;
49514;SDS011;35415;47.870;16.058;2022-11-15T11:06:12;27.85;;;13.68;;
49514;SDS011;35415;47.870;16.058;2022-11-15T11:08:41;27.98;;;13.82;;
49514;SDS011;35415;47.870;16.058;2022-11-15T11:11:21;24.20;;;12.77;;
49514;SDS011;35415;47.870;16.058;2022-11-15T11:13:48;22.35;;;11.75;;
49514;SDS011;35415;47.870;16.058;2022-11-15T11:16:22;29.33;;;13.52;;
49514;SDS011;35415;47.870;16.058;2022-11-15T11:19:02;29.85;;;15.73;;
49514;SDS011;35415;47.870;16.058;2022-11-15T11:21:45;24.08;;;13.32;;
49514;SDS011;35415;47.870;16.058;2022-11-15T11:24:29;30.98;;;14.90;;
49514;SDS011;35415;47.870;16.058;2022-11-15T11:30:00;24.08;;;13.00;;
49514;SDS011;35415;47.870;16.058;2022-11-15T11:32:37;26.70;;;12.55;;
49514;SDS011;35415;47.870;16.058;2022-11-15T11:35:17;17.60;;;9.57;;
49514;SDS011;35415;47.870;16.058;2022-11-15T11:37:50;22.70;;;12.23;;
49514;SDS011;35415;47.870;16.058;2022-11-15T11:40:22;27.13;;;13.35;;
49514;SDS011;35415;47.870;16.058;2022-11-15T11:42:57;28.15;;;14.13;;
49514;SDS011;35415;47.870;16.058;2022-11-15T11:48:44;30.67;;;14.82;;
49514;SDS011;35415;47.870;16.058;2022-11-15T11:51:18;25.85;;;13.02;;
49514;SDS011;35415;47.870;16.058;2022-11-15T11:53:52;28.88;;;13.00;;
49514;SDS011;35415;47.870;16.058;2022-11-15T11:56:25;25.00;;;12.95;;
49514;SDS011;35415;47.870;16.058;2022-11-15T11:58:56;21.80;;;12.40;;
49514;SDS011;35415;47.870;16.058;2022-11-15T12:01:30;24.58;;;11.98;;
49514;SDS011;35415;47.870;16.058;2022-11-15T12:04:04;29.65;;;13.70;;
49514;SDS011;35415;47.870;16.058;2022-11-15T12:06:36;28.27;;;14.65;;
49514;SDS011;35415;47.870;16.058;2022-11-15T12:09:12;22.75;;;13.60;;
49514;SDS011;35415;47.870;16.058;2022-11-15T12:11:51;22.45;;;12.50;;
49514;SDS011;35415;47.870;16.058;2022-11-15T12:14:30;22.08;;;11.65;;
49514;SDS011;35415;47.870;16.058;2022-11-15T12:17:00;21.08;;;11.43;;
49514;SDS011;35415;47.870;16.058;2022-11-15T12:19:29;18.35;;;10.93;;
49514;SDS011;35415;47.870;16.058;2022-11-15T12:22:00;20.10;;;11.13;;
49514;SDS011;35415;47.870;16.058;2022-11-15T12:24:37;19.70;;;10.40;;
49514;SDS011;35415;47.870;16.058;2022-11-15T12:27:12;35.58;;;19.08;;
49514;SDS011;35415;47.870;16.058;2022-11-15T12:29:44;22.38;;;12.82;;
49514;SDS011;35415;47.870;16.058;2022-11-15T12:32:21;21.45;;;12.27;;
49514;SDS011;35415;47.870;16.058;2022-11-15T12:34:54;24.95;;;14.55;;
49514;SDS011;35415;47.870;16.058;2022-11-15T12:37:46;30.73;;;15.32;;
49514;SDS011;35415;47.870;16.058;2022-11-15T12:40:20;25.50;;;13.20;;
49514;SDS011;35415;47.870;16.058;2022-11-15T12:43:04;27.27;;;13.77;;
49514;SDS011;35415;47.870;16.058;2022-11-15T12:45:46;21.02;;;11.35;;
49514;SDS011;35415;47.870;16.058;2022-11-15T12:57:46;27.83;;;13.77;;
49514;SDS011;35415;47.870;16.058;2022-11-15T13:03:23;46.05;;;23.70;;
49514;SDS011;35415;47.870;16.058;2022-11-15T13:06:00;28.35;;;15.60;;
49514;SDS011;35415;47.870;16.058;2022-11-15T13:08:37;27.98;;;15.93;;
49514;SDS011;35415;47.870;16.058;2022-11-15T13:14:19;28.10;;;13.40;;
49514;SDS011;35415;47.870;16.058;2022-11-15T13:20:17;25.45;;;13.32;;
49514;SDS011;35415;47.870;16.058;2022-11-15T13:22:47;27.52;;;14.73;;
49514;SDS011;35415;47.870;16.058;2022-11-15T13:25:27;38.72;;;18.60;;
49514;SDS011;35415;47.870;16.058;2022-11-15T13:28:19;29.35;;;14.70;;
49514;SDS011;35415;47.870;16.058;2022-11-15T13:30:51;36.92;;;18.00;;
49514;SDS011;35415;47.870;16.058;2022-11-15T13:33:22;31.17;;;15.27;;
49514;SDS011;35415;47.870;16.058;2022-11-15T13:35:52;27.45;;;14.93;;
49514;SDS011;35415;47.870;16.058;2022-11-15T13:38:25;28.90;;;14.02;;
49514;SDS011;35415;47.870;16.058;2022-11-15T13:40:56;31.20;;;14.95;;
49514;SDS011;35415;47.870;16.058;2022-11-15T13:43:27;26.15;;;13.43;;
49514;SDS011;35415;47.870;16.058;2022-11-15T13:46:04;29.65;;;13.57;;
49514;SDS011;35415;47.870;16.058;2022-11-15T13:48:33;27.80;;;13.45;;
49514;SDS011;35415;47.870;16.058;2022-11-15T13:51:01;33.75;;;15.98;;
49514;SDS011;35415;47.870;16.058;2022-11-15T13:53:31;35.80;;;16.50;;
49514;SDS011;35415;47.870;16.058;2022-11-15T13:56:01;35.80;;;17.17;;
49514;SDS011;35415;47.870;16.058;2022-11-15T13:58:29;39.65;;;17.50;;
49514;SDS011;35415;47.870;16.058;2022-11-15T14:00:59;38.20;;;19.85;;
49514;SDS011;35415;47.870;16.058;2022-11-15T14:03:28;39.80;;;19.58;;
49514;SDS011;35415;47.870;16.058;2022-11-15T14:06:04;43.83;;;18.60;;
49514;SDS011;35415;47.870;16.058;2022-11-15T14:08:37;42.50;;;18.83;;
49514;SDS011;35415;47.870;16.058;2022-11-15T14:11:07;38.78;;;18.00;;
49514;SDS011;35415;47.870;16.058;2022-11-15T14:13:38;36.88;;;19.08;;
49514;SDS011;35415;47.870;16.058;2022-11-15T14:16:14;39.92;;;18.83;;
49514;SDS011;35415;47.870;16.058;2022-11-15T14:18:44;38.45;;;16.70;;
49514;SDS011;35415;47.870;16.058;2022-11-15T14:21:13;37.55;;;16.98;;
49514;SDS011;35415;47.870;16.058;2022-11-15T14:23:41;40.35;;;16.88;;
49514;SDS011;35415;47.870;16.058;2022-11-15T14:26:25;36.38;;;16.75;;
49514;SDS011;35415;47.870;16.058;2022-11-15T14:28:55;38.65;;;17.35;;
49514;SDS011;35415;47.870;16.058;2022-11-15T14:31:23;38.17;;;18.55;;
49514;SDS011;35415;47.870;16.058;2022-11-15T14:33:50;37.20;;;18.40;;
49514;SDS011;35415;47.870;16.058;2022-11-15T14:36:17;39.42;;;17.75;;
49514;SDS011;35415;47.870;16.058;2022-11-15T14:38:46;32.10;;;16.02;;
49514;SDS011;35415;47.870;16.058;2022-11-15T14:41:21;34.78;;;17.08;;
49514;SDS011;35415;47.870;16.058;2022-11-15T14:43:50;32.97;;;15.43;;
49514;SDS011;35415;47.870;16.058;2022-11-15T14:46:18;32.90;;;16.67;;
49514;SDS011;35415;47.870;16.058;2022-11-15T14:48:48;34.08;;;17.23;;
49514;SDS011;35415;47.870;16.058;2022-11-15T14:51:15;37.50;;;16.42;;
49514;SDS011;35415;47.870;16.058;2022-11-15T14:53:44;37.78;;;16.52;;